Terminal Aerodrome Forecast
Issued by NWS

Current Version | Previous Version | Graphics & Text | Print | Product List | Glossary On
Versions: 1 2 3 4 5 6 7 8 9 10 11 12 13 14 15 16 17 18 19 20 21 22 23 24 25 26 27
000
FTUS41 KILN 220500
TAFLUK
TAF
KLUK 220534Z 2206/2306 00000KT P6SM SCT250
      TEMPO 2206/2209 5SM BR
     FM221000 08003KT P6SM VCSH SCT015 OVC045
     FM221500 11008KT P6SM FEW015 BKN035
     FM230400 13007KT P6SM -RA SCT012 BKN035=

USA.gov is the U.S. government's official web portal to all federal, state and local government web resources and services.